Time;durP1;ratioP1;P1;durP2;ratioP2;P2;SDS_P1;SDS_P2;PMS_P1;PMS_P2;Temp;Humidity;BMP_temperature;BMP_pressure;BME280_temperature;BME280_humidity;BME280_pressure;Samples;Min_cycle;Max_cycle;Signal;HPM_P1;HPM_P2
2023/05/01 00:00:48;;;;;;;11.55;6.20;;;;;;;11.14;100.00;101725.66;5033907;28;20034;-89
2023/05/01 00:03:16;;;;;;;9.70;5.30;;;;;;;11.02;100.00;101730.75;5032829;28;20104;-90
2023/05/01 00:05:43;;;;;;;10.70;6.68;;;;;;;10.97;100.00;101725.66;5035510;28;20077;-88
2023/05/01 00:08:10;;;;;;;8.65;5.85;;;;;;;10.96;100.00;101723.94;5036111;28;20953;-89
2023/05/01 00:10:36;;;;;;;12.90;6.03;;;;;;;10.78;100.00;101714.16;5035771;28;20367;-91
2023/05/01 00:13:04;;;;;;;14.07;5.88;;;;;;;10.79;100.00;101715.88;5040919;28;20085;-90
2023/05/01 00:15:31;;;;;;;12.32;6.35;;;;;;;10.56;100.00;101704.56;5032407;28;20402;-90
2023/05/01 00:17:57;;;;;;;12.43;5.78;;;;;;;10.69;100.00;101701.28;5034079;28;20405;-90
2023/05/01 00:20:29;;;;;;;12.60;7.07;;;;;;;10.70;100.00;101700.38;5025263;28;20037;-90
2023/05/01 00:22:56;;;;;;;13.45;6.57;;;;;;;10.73;100.00;101690.38;5025437;28;20300;-90
2023/05/01 00:25:22;;;;;;;17.17;6.53;;;;;;;10.78;100.00;101695.50;5024599;28;20092;-89
2023/05/01 00:27:48;;;;;;;9.82;5.43;;;;;;;10.79;100.00;101692.78;5023521;28;20134;-90
2023/05/01 00:30:14;;;;;;;32.80;7.45;;;;;;;10.75;100.00;101688.53;5022771;28;20104;-89
2023/05/01 00:32:40;;;;;;;10.70;6.68;;;;;;;10.81;100.00;101692.69;5025171;28;20042;-89
2023/05/01 00:35:06;;;;;;;14.02;7.13;;;;;;;10.72;100.00;101678.00;5031343;28;20022;-90
2023/05/01 00:37:33;;;;;;;13.70;6.63;;;;;;;10.84;100.00;101679.16;5053587;28;20046;-90
2023/05/01 00:39:59;;;;;;;10.75;6.68;;;;;;;10.85;100.00;101675.59;5041417;28;20017;-90
2023/05/01 00:42:32;;;;;;;13.20;6.78;;;;;;;10.79;100.00;101670.53;5036000;28;20034;-90
2023/05/01 00:44:58;;;;;;;12.38;7.18;;;;;;;10.83;100.00;101664.97;5036767;28;20103;-89
2023/05/01 00:47:24;;;;;;;13.98;7.65;;;;;;;10.82;100.00;101665.06;5038118;28;20073;-90
2023/05/01 00:49:51;;;;;;;10.27;6.22;;;;;;;10.84;100.00;101658.72;5039389;28;20578;-90
2023/05/01 00:52:17;;;;;;;9.88;6.97;;;;;;;10.82;100.00;101657.06;5042455;28;20141;-90
2023/05/01 00:54:50;;;;;;;13.82;7.72;;;;;;;10.88;100.00;101654.06;5044684;28;20046;-90
2023/05/01 00:57:19;;;;;;;13.15;6.57;;;;;;;10.91;100.00;101648.56;5051153;28;20049;-90
2023/05/01 00:59:44;;;;;;;11.38;6.97;;;;;;;10.92;100.00;101644.97;5046306;28;20030;-91
2023/05/01 01:02:11;;;;;;;11.52;6.95;;;;;;;10.86;100.00;101645.28;5055057;28;20053;-90
2023/05/01 01:04:41;;;;;;;10.00;6.82;;;;;;;10.80;100.00;101643.81;5046830;28;20033;-90
2023/05/01 01:07:20;;;;;;;12.93;6.38;;;;;;;10.74;100.00;101638.75;5033334;28;20326;-90
2023/05/01 01:10:05;;;;;;;21.75;7.30;;;;;;;10.70;100.00;101639.03;5037658;28;20563;-90
2023/05/01 01:12:38;;;;;;;10.73;6.78;;;;;;;10.68;100.00;101631.06;5045622;28;20057;-90
2023/05/01 01:15:09;;;;;;;11.63;6.95;;;;;;;10.70;100.00;101631.03;5037056;28;20465;-89
2023/05/01 01:17:48;;;;;;;12.43;6.30;;;;;;;10.58;100.00;101628.00;5029907;28;20062;-89
2023/05/01 01:20:30;;;;;;;11.25;6.43;;;;;;;10.57;100.00;101628.09;5024588;28;20377;-90
2023/05/01 01:23:40;;;;;;;10.20;6.70;;;;;;;10.66;100.00;101619.63;5032355;28;20029;-89
2023/05/01 01:26:28;;;;;;;13.23;6.90;;;;;;;10.68;100.00;101624.88;5029838;28;20081;-90
2023/05/01 01:29:03;;;;;;;8.52;6.18;;;;;;;10.72;100.00;101616.63;5025110;28;20045;-90
2023/05/01 01:32:05;;;;;;;13.50;7.25;;;;;;;10.73;100.00;101626.38;5025512;28;20033;-90
2023/05/01 01:34:35;;;;;;;17.63;7.47;;;;;;;10.70;100.00;101618.53;5004876;28;20045;-90
2023/05/01 01:37:10;;;;;;;18.27;7.32;;;;;;;10.67;100.00;101615.16;4985710;28;20089;-90
2023/05/01 01:39:45;;;;;;;14.30;8.00;;;;;;;10.66;100.00;101614.31;5001319;28;20045;-91
2023/05/01 01:42:17;;;;;;;10.90;5.72;;;;;;;10.45;100.00;101610.06;5002220;28;20115;-93
2023/05/01 01:44:50;;;;;;;9.90;5.97;;;;;;;10.27;100.00;101610.03;4984539;28;20050;-93
2023/05/01 01:47:19;;;;;;;9.70;6.93;;;;;;;10.33;100.00;101600.84;5002118;28;20175;-93
2023/05/01 01:49:48;;;;;;;13.48;7.97;;;;;;;10.39;100.00;101600.53;4983141;28;20226;-93
2023/05/01 01:52:17;;;;;;;16.75;7.65;;;;;;;10.38;100.00;101596.16;4983126;28;20088;-92
2023/05/01 01:54:49;;;;;;;15.07;7.22;;;;;;;10.39;100.00;101587.22;4982062;28;20608;-92
2023/05/01 01:57:17;;;;;;;16.40;6.85;;;;;;;10.13;100.00;101586.69;4974223;28;20052;-92
2023/05/01 01:59:45;;;;;;;14.65;7.82;;;;;;;10.25;100.00;101587.06;4983691;28;20919;-93
2023/05/01 02:02:12;;;;;;;16.77;7.53;;;;;;;10.30;100.00;101575.22;4981041;28;20053;-92
2023/05/01 02:04:46;;;;;;;12.35;7.63;;;;;;;10.23;100.00;101578.25;4980107;28;20035;-93
2023/05/01 02:07:15;;;;;;;15.60;7.05;;;;;;;9.93;100.00;101572.63;4996023;28;20049;-92
2023/05/01 02:09:44;;;;;;;11.30;6.57;;;;;;;9.84;100.00;101566.81;4981853;28;20036;-93
2023/05/01 02:12:11;;;;;;;16.38;7.00;;;;;;;9.87;100.00;101571.13;5016125;28;20056;-91
2023/05/01 02:14:38;;;;;;;20.48;7.57;;;;;;;9.90;100.00;101565.66;5032400;28;20145;-92
2023/05/01 02:17:06;;;;;;;18.67;7.65;;;;;;;9.83;100.00;101556.22;5037904;28;20042;-92
2023/05/01 02:19:33;;;;;;;14.93;7.60;;;;;;;9.75;100.00;101558.41;5036576;28;20839;-92
2023/05/01 02:22:00;;;;;;;11.52;7.38;;;;;;;9.68;100.00;101554.31;5032018;28;20038;-91
2023/05/01 02:24:28;;;;;;;14.73;8.40;;;;;;;9.75;100.00;101558.41;5036703;28;20026;-91
2023/05/01 02:27:00;;;;;;;14.02;7.03;;;;;;;9.71;100.00;101554.16;5039085;28;20025;-92
2023/05/01 02:29:26;;;;;;;16.35;7.75;;;;;;;9.80;100.00;101557.25;5024139;28;20030;-91
2023/05/01 02:31:53;;;;;;;12.43;7.00;;;;;;;9.95;100.00;101544.97;5021859;28;20049;-93
2023/05/01 02:34:19;;;;;;;14.52;7.47;;;;;;;9.96;100.00;101544.03;5029382;28;20132;-93
2023/05/01 02:36:45;;;;;;;16.45;7.22;;;;;;;9.84;100.00;101542.84;5014556;28;20229;-92
2023/05/01 02:39:11;;;;;;;14.07;6.57;;;;;;;10.10;100.00;101543.34;5022917;28;20566;-92
2023/05/01 02:41:39;;;;;;;12.15;5.97;;;;;;;10.17;100.00;101542.09;5018141;28;20147;-92
2023/05/01 02:44:08;;;;;;;11.35;7.28;;;;;;;10.25;100.00;101531.97;5019904;28;20093;-91
2023/05/01 02:46:35;;;;;;;11.55;7.18;;;;;;;9.94;100.00;101534.38;5010573;28;20040;-92
2023/05/01 02:49:05;;;;;;;19.70;8.32;;;;;;;10.10;100.00;101535.38;5011939;28;20041;-92
2023/05/01 02:51:31;;;;;;;15.27;6.70;;;;;;;10.10;100.00;101535.38;5023841;28;20148;-92
2023/05/01 02:53:58;;;;;;;13.25;6.82;;;;;;;10.17;100.00;101530.56;5020597;28;20677;-92
2023/05/01 02:56:28;;;;;;;17.95;7.13;;;;;;;10.18;100.00;101521.63;5019714;28;20025;-93
2023/05/01 02:58:54;;;;;;;15.98;7.30;;;;;;;10.01;100.00;101525.16;5017015;28;20053;-93
2023/05/01 03:01:20;;;;;;;15.30;7.63;;;;;;;10.11;100.00;101523.75;5020714;28;20030;-91
2023/05/01 03:03:50;;;;;;;14.93;7.05;;;;;;;10.09;100.00;101513.19;5023448;28;20037;-91
2023/05/01 03:06:18;;;;;;;15.65;7.70;;;;;;;10.02;100.00;101509.09;5036163;28;20063;-92
2023/05/01 03:08:44;;;;;;;15.45;8.15;;;;;;;10.05;100.00;101508.94;5033106;28;20038;-92
2023/05/01 03:11:09;;;;;;;13.25;6.55;;;;;;;10.10;100.00;101511.38;5017279;28;20030;-94
2023/05/01 03:13:35;;;;;;;16.38;7.85;;;;;;;10.20;100.00;101504.66;5021777;28;20037;-94
2023/05/01 03:16:03;;;;;;;17.92;7.40;;;;;;;10.28;100.00;101502.47;5021788;28;20034;-91
2023/05/01 03:18:29;;;;;;;17.67;7.53;;;;;;;10.33;100.00;101499.56;5025145;28;20093;-91
2023/05/01 03:20:56;;;;;;;13.98;7.20;;;;;;;10.27;100.00;101502.53;5024853;28;20034;-92
2023/05/01 03:23:24;;;;;;;13.65;6.68;;;;;;;10.25;100.00;101499.13;5002156;28;20567;-93
2023/05/01 03:25:53;;;;;;;10.80;6.72;;;;;;;10.12;100.00;101485.50;5021467;28;20141;-93
2023/05/01 03:28:22;;;;;;;16.55;7.40;;;;;;;10.17;100.00;101491.47;5029969;28;20068;-93
2023/05/01 03:30:52;;;;;;;11.93;7.32;;;;;;;10.22;100.00;101484.09;5019503;28;20050;-92
2023/05/01 03:33:18;;;;;;;10.45;6.57;;;;;;;10.13;100.00;101480.09;5028465;28;20041;-92
2023/05/01 03:35:44;;;;;;;13.65;6.70;;;;;;;10.10;100.00;101485.59;5031007;28;20030;-92
2023/05/01 03:38:10;;;;;;;14.27;7.90;;;;;;;10.17;100.00;101479.94;5022058;28;20367;-92
2023/05/01 03:41:01;;;;;;;15.25;7.60;;;;;;;10.13;100.00;101476.56;5026780;28;20042;-91
2023/05/01 03:43:26;;;;;;;14.40;6.82;;;;;;;10.15;100.00;101474.69;5032349;28;20341;-90
2023/05/01 03:45:54;;;;;;;14.75;7.85;;;;;;;10.15;100.00;101477.38;5026421;28;20021;-91
2023/05/01 03:48:19;;;;;;;15.43;7.82;;;;;;;10.10;100.00;101469.59;5023013;28;20471;-93
2023/05/01 03:50:45;;;;;;;15.77;7.60;;;;;;;10.17;100.00;101477.28;5015590;28;20034;-91
2023/05/01 03:53:12;;;;;;;11.88;7.53;;;;;;;10.17;100.00;101470.13;5015773;28;20034;-90
2023/05/01 03:55:39;;;;;;;12.00;6.53;;;;;;;10.23;100.00;101463.63;5015100;28;20132;-91
2023/05/01 03:58:05;;;;;;;17.08;7.80;;;;;;;10.20;100.00;101469.13;5018007;28;20034;-91
2023/05/01 04:00:32;;;;;;;16.13;7.07;;;;;;;10.26;100.00;101466.19;5022329;28;20045;-91
2023/05/01 04:02:57;;;;;;;11.27;7.53;;;;;;;10.30;100.00;101462.41;5016706;28;20237;-91
2023/05/01 04:05:24;;;;;;;12.88;7.05;;;;;;;10.22;100.00;101459.25;5024654;28;20037;-92
2023/05/01 04:07:53;;;;;;;15.40;7.53;;;;;;;10.20;100.00;101453.16;5019586;28;20030;-92
2023/05/01 04:10:18;;;;;;;16.58;7.97;;;;;;;10.29;100.00;101455.34;5030663;28;20369;-90
2023/05/01 04:12:52;;;;;;;17.60;8.15;;;;;;;10.36;100.00;101464.75;5024625;28;20042;-91
2023/05/01 04:15:18;;;;;;;18.73;7.40;;;;;;;10.36;100.00;101456.75;5039525;28;20603;-88
2023/05/01 04:17:43;;;;;;;15.32;7.47;;;;;;;10.12;100.00;101465.03;5035570;28;20085;-90
2023/05/01 04:20:09;;;;;;;18.27;8.40;;;;;;;10.19;100.00;101462.06;5033329;28;20071;-91
2023/05/01 04:22:36;;;;;;;14.68;7.90;;;;;;;10.15;100.00;101461.38;5042876;28;20041;-90
2023/05/01 04:25:02;;;;;;;15.93;7.63;;;;;;;10.33;100.00;101456.91;5035168;28;20290;-91
2023/05/01 04:27:28;;;;;;;17.63;7.68;;;;;;;10.38;100.00;101455.72;5040776;28;20382;-92
2023/05/01 04:29:54;;;;;;;20.77;8.80;;;;;;;10.42;100.00;101463.56;5040617;28;20077;-93
2023/05/01 04:32:20;;;;;;;16.50;7.80;;;;;;;10.33;100.00;101462.22;5041673;28;20030;-91
2023/05/01 04:34:47;;;;;;;15.75;8.02;;;;;;;10.31;100.00;101454.31;5040914;28;20072;-92
2023/05/01 04:37:13;;;;;;;13.43;7.50;;;;;;;10.33;100.00;101454.25;5038920;28;20072;-91
2023/05/01 04:39:39;;;;;;;11.98;7.68;;;;;;;10.25;100.00;101453.81;5037331;28;20265;-91
2023/05/01 04:42:05;;;;;;;17.88;8.35;;;;;;;10.25;100.00;101449.31;5032489;28;20061;-92
2023/05/01 04:44:33;;;;;;;16.27;7.95;;;;;;;10.32;100.00;101447.19;5028470;28;20030;-90
2023/05/01 04:47:01;;;;;;;15.32;7.45;;;;;;;10.27;100.00;101443.91;5030080;28;20567;-90
2023/05/01 04:49:27;;;;;;;19.55;7.95;;;;;;;10.32;100.00;101444.53;5033769;28;20099;-90
2023/05/01 04:51:53;;;;;;;13.80;7.07;;;;;;;10.27;100.00;101443.91;5049762;28;20068;-92
2023/05/01 04:54:24;;;;;;;12.70;7.85;;;;;;;10.33;100.00;101438.25;5034483;28;20054;-91
2023/05/01 04:56:52;;;;;;;15.23;8.15;;;;;;;10.37;100.00;101446.00;5029668;28;20025;-89
2023/05/01 04:59:17;;;;;;;13.20;8.18;;;;;;;10.43;100.00;101442.16;5053426;28;20040;-90
2023/05/01 05:01:45;;;;;;;15.57;6.80;;;;;;;10.52;100.00;101444.31;5029791;28;20044;-90
2023/05/01 05:04:11;;;;;;;14.27;7.20;;;;;;;10.49;100.00;101444.50;5054264;28;20292;-90
2023/05/01 05:06:37;;;;;;;17.23;8.35;;;;;;;10.40;100.00;101446.81;5051236;28;20467;-93
2023/05/01 05:09:10;;;;;;;10.65;7.18;;;;;;;10.45;100.00;101447.41;5028387;28;20046;-93
2023/05/01 05:11:35;;;;;;;13.60;7.63;;;;;;;10.39;100.00;101451.25;5048092;28;20443;-92
2023/05/01 05:14:04;;;;;;;14.00;7.68;;;;;;;10.35;100.00;101450.56;5041570;28;20119;-94
2023/05/01 05:16:31;;;;;;;17.15;7.68;;;;;;;10.16;100.00;101452.44;5044131;28;20041;-93
2023/05/01 05:18:57;;;;;;;14.15;7.82;;;;;;;10.43;100.00;101451.94;5025224;28;20041;-93
2023/05/01 05:21:24;;;;;;;14.90;7.18;;;;;;;10.41;100.00;101451.19;5054954;28;20482;-93
2023/05/01 05:23:53;;;;;;;16.90;8.05;;;;;;;10.41;100.00;101440.53;5043048;28;20073;-94
2023/05/01 05:26:19;;;;;;;13.63;7.22;;;;;;;10.40;100.00;101453.00;5031586;28;20064;-94
2023/05/01 05:28:47;;;;;;;13.75;7.95;;;;;;;10.80;100.00;101453.53;5049830;28;20052;-95
2023/05/01 05:31:13;;;;;;;17.25;8.38;;;;;;;10.50;100.00;101448.03;5040479;28;20038;-94
2023/05/01 05:33:39;;;;;;;12.10;6.82;;;;;;;10.69;100.00;101443.41;5029415;28;20037;-93
2023/05/01 05:36:05;;;;;;;12.63;7.93;;;;;;;10.73;100.00;101442.31;5034712;28;20038;-95
2023/05/01 05:38:37;;;;;;;12.05;7.68;;;;;;;10.79;100.00;101441.09;5027363;28;20050;-95
2023/05/01 05:41:09;;;;;;;16.48;8.38;;;;;;;10.86;100.00;101442.50;5022895;28;20064;-96
2023/05/01 05:43:59;;;;;;;;;;;;;;;;;;;;;
2023/05/01 05:46:26;;;;;;;14.75;8.20;;;;;;;10.98;100.00;101439.16;5019539;22;20061;-71
2023/05/01 05:48:52;;;;;;;15.10;8.07;;;;;;;11.25;100.00;101439.44;4996407;28;20762;-72
2023/05/01 05:51:18;;;;;;;17.80;8.60;;;;;;;11.23;100.00;101438.63;5000932;28;20048;-71
2023/05/01 05:53:44;;;;;;;19.40;8.45;;;;;;;11.16;100.00;101434.59;4998941;28;20030;-71
2023/05/01 05:56:09;;;;;;;12.07;8.13;;;;;;;11.43;100.00;101433.97;4991774;28;20038;-70
2023/05/01 05:58:36;;;;;;;21.52;8.95;;;;;;;10.96;100.00;101437.53;5006279;28;20129;-72
2023/05/01 06:01:03;;;;;;;12.40;8.02;;;;;;;11.31;100.00;101431.06;4999055;28;20065;-71
2023/05/01 06:03:28;;;;;;;12.45;7.82;;;;;;;11.41;100.00;101434.06;5006223;28;20043;-70
2023/05/01 06:05:58;;;;;;;15.85;8.18;;;;;;;11.54;100.00;101429.72;4991862;28;20038;-71
2023/05/01 06:08:24;;;;;;;14.07;8.82;;;;;;;11.66;100.00;101434.38;4999010;28;20046;-71
2023/05/01 06:10:50;;;;;;;18.73;8.77;;;;;;;12.02;100.00;101429.66;4991099;28;20038;-71
2023/05/01 06:13:15;;;;;;;17.15;8.68;;;;;;;11.62;100.00;101427.47;4989467;28;20570;-72
2023/05/01 06:15:44;;;;;;;17.20;8.63;;;;;;;11.88;100.00;101427.78;5003563;28;20038;-72
2023/05/01 06:18:10;;;;;;;13.43;8.63;;;;;;;12.13;99.91;101427.19;4988358;28;20210;-71
2023/05/01 06:20:37;;;;;;;15.32;9.65;;;;;;;12.00;99.23;101429.75;4993552;28;20993;-72
2023/05/01 06:23:08;;;;;;;15.90;8.30;;;;;;;11.98;97.90;101428.97;4991375;28;20045;-71
2023/05/01 06:25:48;;;;;;;14.82;8.65;;;;;;;11.92;98.51;101434.69;5005752;28;20049;-71
2023/05/01 06:28:14;;;;;;;15.07;9.38;;;;;;;12.17;99.75;101429.56;4988480;28;20045;-71
2023/05/01 06:30:40;;;;;;;15.35;9.30;;;;;;;12.41;98.81;101429.91;4991480;28;20534;-72
2023/05/01 06:33:06;;;;;;;15.90;8.50;;;;;;;12.18;97.35;101431.28;4992244;28;20034;-71
2023/05/01 06:35:32;;;;;;;15.88;8.77;;;;;;;12.33;98.44;101434.00;4986785;28;20038;-72
2023/05/01 06:37:59;;;;;;;16.10;9.50;;;;;;;12.26;98.06;101435.34;4979861;28;20051;-72
2023/05/01 06:40:25;;;;;;;12.77;7.95;;;;;;;12.30;96.29;101429.72;4993417;28;20041;-72
2023/05/01 06:42:51;;;;;;;15.05;8.48;;;;;;;12.69;92.75;101436.19;5004600;28;20910;-71
2023/05/01 06:45:17;;;;;;;15.45;8.95;;;;;;;12.68;91.15;101429.13;4987331;28;20046;-72
2023/05/01 06:47:43;;;;;;;16.58;8.75;;;;;;;12.83;92.66;101427.31;4988837;28;20042;-71
2023/05/01 06:50:09;;;;;;;14.18;7.97;;;;;;;12.76;92.12;101417.97;4988808;28;20049;-71
2023/05/01 06:52:34;;;;;;;13.98;8.38;;;;;;;12.63;90.55;101415.19;4987725;28;20066;-71
2023/05/01 06:55:00;;;;;;;16.55;8.45;;;;;;;13.06;90.33;101416.00;4995919;28;20034;-72
2023/05/01 06:57:28;;;;;;;17.13;8.85;;;;;;;13.39;88.89;101418.31;5004122;28;20841;-72
2023/05/01 06:59:54;;;;;;;14.88;9.07;;;;;;;13.37;87.07;101416.69;4986505;28;20041;-72
2023/05/01 07:02:20;;;;;;;13.75;8.50;;;;;;;13.72;84.66;101407.16;4997607;28;20030;-71
2023/05/01 07:04:46;;;;;;;17.60;9.60;;;;;;;13.80;84.07;101417.34;4994867;28;20196;-71
2023/05/01 07:07:12;;;;;;;16.15;9.25;;;;;;;14.02;84.00;101418.59;4992177;28;21379;-72
2023/05/01 07:09:39;;;;;;;19.80;8.88;;;;;;;13.99;84.67;101417.81;4994462;28;20046;-72
2023/05/01 07:12:05;;;;;;;18.15;8.95;;;;;;;13.69;83.59;101410.03;4987334;28;20069;-72
2023/05/01 07:14:31;;;;;;;14.52;8.98;;;;;;;13.55;87.49;101411.94;4985974;28;20034;-72
2023/05/01 07:17:01;;;;;;;18.63;8.30;;;;;;;13.90;87.00;101414.91;4987585;28;20069;-72
2023/05/01 07:19:26;;;;;;;16.52;8.65;;;;;;;13.67;90.24;101416.47;4988130;28;20153;-71
2023/05/01 07:21:52;;;;;;;16.70;8.98;;;;;;;14.05;84.91;101415.69;4990193;28;20142;-72
2023/05/01 07:24:19;;;;;;;13.10;8.35;;;;;;;14.16;84.51;101408.63;5004460;28;20289;-72
2023/05/01 07:26:45;;;;;;;15.50;8.57;;;;;;;14.82;84.00;101412.06;4989738;28;20038;-72
2023/05/01 07:29:12;;;;;;;13.68;8.75;;;;;;;15.41;78.39;101416.69;4989430;28;20938;-71
2023/05/01 07:31:40;;;;;;;15.90;9.20;;;;;;;15.94;74.57;101414.50;4997289;28;20118;-72
2023/05/01 07:34:06;;;;;;;17.15;9.13;;;;;;;15.91;74.78;101410.19;5012049;28;20042;-72
2023/05/01 07:36:32;;;;;;;16.25;8.52;;;;;;;16.27;71.76;101409.19;4991622;28;20042;-72
2023/05/01 07:38:58;;;;;;;17.00;8.93;;;;;;;15.55;74.79;101405.75;5016662;28;20160;-72
2023/05/01 07:41:24;;;;;;;19.15;8.82;;;;;;;15.52;75.60;101401.50;4982266;28;20030;-71
2023/05/01 07:43:50;;;;;;;19.67;8.98;;;;;;;16.30;71.64;101402.72;4992062;28;20129;-70
2023/05/01 07:46:19;;;;;;;18.15;8.07;;;;;;;15.55;74.08;101401.25;4994065;28;20053;-72
2023/05/01 07:48:45;;;;;;;18.98;9.10;;;;;;;15.96;72.71;101399.09;4990518;28;20038;-72
2023/05/01 07:51:10;;;;;;;20.55;8.98;;;;;;;16.34;70.38;101395.25;4993652;28;20039;-72
2023/05/01 07:53:36;;;;;;;15.50;8.60;;;;;;;16.22;70.52;101384.50;4991320;28;20031;-71
2023/05/01 07:56:09;;;;;;;15.75;8.27;;;;;;;16.56;70.50;101381.78;4991407;28;20570;-72
2023/05/01 07:58:36;;;;;;;16.30;8.25;;;;;;;16.53;68.35;101385.59;4991705;28;21425;-70
2023/05/01 08:01:02;;;;;;;18.00;8.63;;;;;;;16.63;69.91;101384.88;4992669;28;20061;-71
2023/05/01 08:03:29;;;;;;;17.25;8.05;;;;;;;17.08;70.55;101383.88;5011529;28;20069;-72
2023/05/01 08:05:56;;;;;;;14.48;8.48;;;;;;;17.11;66.98;101381.88;4994489;28;20042;-72
2023/05/01 08:08:22;;;;;;;10.70;7.95;;;;;;;16.99;65.33;101378.38;5007837;28;20109;-73
2023/05/01 08:10:53;;;;;;;16.10;7.65;;;;;;;17.61;65.19;101381.22;4998920;28;20042;-72
2023/05/01 08:13:19;;;;;;;14.02;7.75;;;;;;;17.84;66.62;101389.25;5003022;28;20042;-70
2023/05/01 08:15:46;;;;;;;13.93;7.90;;;;;;;17.95;62.58;101385.63;4998469;28;20373;-71
2023/05/01 08:18:13;;;;;;;10.68;7.45;;;;;;;17.91;64.80;101392.25;5000970;28;20801;-72
2023/05/01 08:20:39;;;;;;;10.13;7.43;;;;;;;18.40;63.62;101379.94;4999661;28;20081;-72
2023/05/01 08:23:07;;;;;;;14.85;8.38;;;;;;;18.63;62.08;101378.75;4996917;28;20043;-73
2023/05/01 08:25:32;;;;;;;13.27;7.32;;;;;;;19.06;59.33;101375.78;4995014;28;20480;-72
2023/05/01 08:27:58;;;;;;;14.93;7.90;;;;;;;17.65;58.70;101376.44;5000612;28;20041;-72
2023/05/01 08:30:25;;;;;;;12.38;7.45;;;;;;;17.63;59.46;101375.72;4994490;28;20105;-72
2023/05/01 08:32:51;;;;;;;10.15;7.30;;;;;;;17.73;59.74;101376.69;4993625;28;20042;-71
2023/05/01 08:35:17;;;;;;;11.65;6.47;;;;;;;17.42;58.73;101367.59;5015952;28;20053;-72
2023/05/01 08:37:43;;;;;;;13.75;7.32;;;;;;;18.02;58.32;101376.00;4994572;28;20049;-72
2023/05/01 08:40:09;;;;;;;12.48;7.00;;;;;;;18.69;59.02;101369.28;4993830;28;20049;-71
2023/05/01 08:42:36;;;;;;;15.35;8.02;;;;;;;18.64;57.68;101369.66;4999677;28;20039;-71
2023/05/01 08:45:03;;;;;;;11.70;7.30;;;;;;;17.46;59.35;101373.56;5001234;28;20141;-73
2023/05/01 08:47:30;;;;;;;12.10;7.32;;;;;;;17.43;61.06;101376.53;4998681;28;20034;-72
2023/05/01 08:50:02;;;;;;;11.70;6.82;;;;;;;17.58;58.95;101372.56;5010625;28;20037;-71
2023/05/01 08:52:29;;;;;;;11.23;6.88;;;;;;;18.21;59.81;101375.28;4992917;28;20030;-71
2023/05/01 08:54:56;;;;;;;11.15;6.50;;;;;;;18.10;59.26;101363.56;4995873;28;20117;-71
2023/05/01 08:57:27;;;;;;;10.75;6.45;;;;;;;18.32;58.09;101373.38;5003030;28;20153;-72
2023/05/01 08:59:56;;;;;;;11.38;5.82;;;;;;;18.83;57.07;101371.59;4993762;28;20030;-72
2023/05/01 09:02:26;;;;;;;14.15;7.00;;;;;;;19.55;56.57;101367.72;5007980;28;20109;-72
2023/05/01 09:04:53;;;;;;;9.70;6.22;;;;;;;19.80;56.25;101364.44;4996047;28;20048;-73
2023/05/01 09:07:18;;;;;;;10.68;6.28;;;;;;;19.51;54.88;101369.84;4994188;28;20034;-72
2023/05/01 09:09:44;;;;;;;9.05;6.57;;;;;;;19.45;53.50;101367.72;5003639;28;20042;-72
2023/05/01 09:12:25;;;;;;;10.07;5.97;;;;;;;19.70;54.75;101374.44;4996949;28;20069;-73
2023/05/01 09:14:53;;;;;;;10.10;6.23;;;;;;;19.10;54.20;101366.41;4990513;28;20046;-72
2023/05/01 09:17:20;;;;;;;9.48;6.40;;;;;;;19.74;55.48;101361.47;5004824;28;20034;-73
2023/05/01 09:19:48;;;;;;;6.95;5.90;;;;;;;20.13;54.32;101363.13;4994821;28;20123;-72
2023/05/01 09:22:14;;;;;;;10.88;6.10;;;;;;;20.20;52.90;101357.97;4991519;28;20042;-73
2023/05/01 09:24:40;;;;;;;11.52;7.07;;;;;;;19.08;53.04;101367.53;4991359;28;20042;-72
2023/05/01 09:27:06;;;;;;;12.15;7.30;;;;;;;19.52;55.00;101373.41;4994729;28;20038;-71
2023/05/01 09:29:46;;;;;;;7.03;6.32;;;;;;;19.92;52.70;101365.13;4996152;28;20030;-72
2023/05/01 09:32:20;;;;;;;11.75;6.28;;;;;;;19.25;55.18;101372.25;4996185;28;20117;-72
2023/05/01 09:34:48;;;;;;;12.50;5.88;;;;;;;18.62;56.42;101369.81;4992183;28;20039;-73
2023/05/01 09:37:36;;;;;;;10.93;6.55;;;;;;;18.81;54.71;101363.63;4996697;28;20134;-72
2023/05/01 09:40:05;;;;;;;8.05;6.18;;;;;;;18.50;57.62;101360.06;4997487;28;20032;-73
2023/05/01 09:42:33;;;;;;;10.48;7.00;;;;;;;18.91;54.96;101357.38;4994373;28;20031;-72
2023/05/01 09:45:00;;;;;;;10.38;6.70;;;;;;;19.90;56.13;101359.88;4997045;28;20050;-72
2023/05/01 09:47:30;;;;;;;14.35;6.78;;;;;;;19.23;55.67;101351.72;4999525;28;20037;-71
2023/05/01 09:49:59;;;;;;;9.68;6.72;;;;;;;19.69;55.55;101353.78;4998652;28;20038;-72
2023/05/01 09:52:29;;;;;;;11.82;6.90;;;;;;;20.50;55.89;101342.50;4983674;28;20042;-72
2023/05/01 09:55:15;;;;;;;11.63;6.63;;;;;;;20.63;52.62;101340.25;4994372;28;20116;-72
2023/05/01 09:57:44;;;;;;;8.00;6.63;;;;;;;20.03;53.48;101353.28;4990222;28;20046;-72
2023/05/01 10:00:14;;;;;;;8.38;5.43;;;;;;;19.67;52.81;101348.50;5012724;28;20031;-72
2023/05/01 10:02:42;;;;;;;12.77;7.03;;;;;;;19.53;56.92;101350.75;5006511;28;20038;-71
2023/05/01 10:05:09;;;;;;;12.27;6.60;;;;;;;20.04;53.18;101347.75;5005814;28;20042;-72
2023/05/01 10:07:36;;;;;;;13.55;6.90;;;;;;;20.09;54.24;101350.03;4984757;28;20082;-72
2023/05/01 10:10:21;;;;;;;12.68;6.13;;;;;;;20.06;51.49;101344.88;4991935;28;20038;-72
2023/05/01 10:12:47;;;;;;;9.73;6.60;;;;;;;20.06;53.83;101353.00;4992431;28;20034;-70
2023/05/01 10:15:14;;;;;;;11.05;6.82;;;;;;;19.91;53.42;101353.47;5012216;28;20034;-72
2023/05/01 10:17:43;;;;;;;9.80;6.75;;;;;;;19.90;54.67;101346.34;4993844;28;20042;-71
2023/05/01 10:20:11;;;;;;;12.32;7.80;;;;;;;19.77;58.53;101355.75;4998257;28;20961;-70
2023/05/01 10:22:38;;;;;;;9.50;7.57;;;;;;;20.27;54.24;101344.66;5006690;28;20145;-72
2023/05/01 10:25:10;;;;;;;10.88;7.38;;;;;;;19.80;56.46;101348.22;5013131;28;20041;-71
2023/05/01 10:27:38;;;;;;;9.60;7.85;;;;;;;19.54;59.79;101347.94;4995000;28;20034;-72
2023/05/01 10:30:11;;;;;;;14.30;7.18;;;;;;;18.96;59.88;101352.41;4990721;28;20105;-71
2023/05/01 10:32:41;;;;;;;13.10;7.22;;;;;;;18.61;61.35;101342.91;4991516;28;20034;-72
2023/05/01 10:35:19;;;;;;;11.60;7.60;;;;;;;18.86;62.35;101347.84;4991641;28;20088;-73
2023/05/01 10:37:56;;;;;;;12.65;7.53;;;;;;;19.19;59.36;101343.06;5005479;28;20066;-71
2023/05/01 10:40:43;;;;;;;9.95;7.20;;;;;;;18.69;61.35;101334.16;5004199;28;20038;-71
2023/05/01 10:43:11;;;;;;;12.88;7.70;;;;;;;19.58;60.67;101345.78;4991208;28;20034;-72
2023/05/01 10:45:37;;;;;;;12.85;6.80;;;;;;;18.94;58.78;101343.59;4996378;28;20090;-71
2023/05/01 10:48:10;;;;;;;12.07;7.13;;;;;;;19.10;58.30;101343.91;5005011;28;20030;-72
2023/05/01 10:51:16;;;;;;;9.68;6.95;;;;;;;19.83;55.27;101342.53;4991624;28;20065;-72
2023/05/01 10:53:44;;;;;;;9.32;7.28;;;;;;;19.95;55.75;101340.50;4991392;28;20606;-71
2023/05/01 10:56:31;;;;;;;11.40;7.13;;;;;;;19.77;55.72;101340.38;4989463;28;20042;-72
2023/05/01 10:59:03;;;;;;;9.10;6.78;;;;;;;20.27;54.59;101329.28;4998457;28;20046;-70
2023/05/01 11:01:39;;;;;;;;;;;;;;;20.57;56.39;101322.75;4990852;28;20523;-72
2023/05/01 11:04:20;;;;;;;11.88;6.10;;;;;;;20.78;53.04;101322.50;5000363;28;19917;-72
2023/05/01 11:07:03;;;;;;;10.47;7.47;;;;;;;21.01;54.23;101325.63;4993205;28;20042;-72
2023/05/01 11:09:39;;;;;;;;;;;;;;;20.49;52.86;101328.09;4988375;28;20034;-73
2023/05/01 11:12:06;;;;;;;9.27;6.65;;;;;;;21.21;51.91;101324.50;4988904;28;19965;-71
2023/05/01 11:15:04;;;;;;;8.23;6.53;;;;;;;20.98;51.75;101317.78;4987344;28;20041;-71
2023/05/01 11:17:42;;;;;;;8.10;5.80;;;;;;;20.75;52.41;101319.25;4991050;28;20081;-71
2023/05/01 11:20:35;;;;;;;8.60;5.68;;;;;;;21.03;53.32;101315.47;4988086;28;20038;-71
2023/05/01 11:23:01;;;;;;;19.10;7.82;;;;;;;20.25;53.34;101328.56;5002458;28;20109;-72
2023/05/01 11:25:32;;;;;;;8.60;6.43;;;;;;;20.15;53.45;101325.91;4988108;28;20587;-72